createdAt,value
2022-09-09T00:00:50.270Z,9.82
2022-09-09T00:03:20.519Z,9.38
2022-09-09T00:05:54.311Z,9.93
2022-09-09T00:08:23.712Z,7.87
2022-09-09T00:10:54.099Z,10.50
2022-09-09T00:13:24.933Z,11.68
2022-09-09T00:15:59.611Z,8.88
2022-09-09T00:18:30.954Z,10.93
2022-09-09T00:21:00.179Z,12.17
2022-09-09T00:23:29.205Z,9.90
2022-09-09T00:26:01.647Z,8.70
2022-09-09T00:28:33.188Z,9.27
2022-09-09T00:31:06.664Z,10.85
2022-09-09T00:33:34.040Z,10.60
2022-09-09T00:36:02.260Z,9.85
2022-09-09T00:38:33.174Z,11.10
2022-09-09T00:41:03.590Z,9.45
2022-09-09T00:43:32.253Z,13.60
2022-09-09T00:46:19.145Z,12.77
2022-09-09T00:48:53.114Z,13.30
2022-09-09T00:51:27.192Z,13.02
2022-09-09T00:54:07.709Z,11.00
2022-09-09T00:56:43.099Z,10.55
2022-09-09T00:59:19.212Z,11.13
2022-09-09T01:01:46.660Z,12.07
2022-09-09T01:04:17.148Z,11.52
2022-09-09T01:06:47.136Z,11.65
2022-09-09T01:09:18.089Z,11.60
2022-09-09T01:11:51.697Z,11.57
2022-09-09T01:14:26.303Z,12.15
2022-09-09T01:16:55.660Z,11.38
2022-09-09T01:19:31.968Z,12.10
2022-09-09T01:22:05.769Z,11.95
2022-09-09T01:24:35.418Z,10.23
2022-09-09T01:27:05.855Z,13.73
2022-09-09T01:29:33.183Z,10.35
2022-09-09T01:32:01.278Z,13.18
2022-09-09T01:34:30.695Z,10.23
2022-09-09T01:36:59.975Z,10.60
2022-09-09T01:39:27.738Z,10.25
2022-09-09T01:41:55.733Z,9.55
2022-09-09T01:44:24.552Z,9.10
2022-09-09T01:46:51.939Z,11.50
2022-09-09T01:49:19.642Z,8.70
2022-09-09T01:51:48.332Z,8.50
2022-09-09T01:54:15.691Z,9.38
2022-09-09T01:56:46.829Z,9.05
2022-09-09T01:59:25.084Z,11.13
2022-09-09T02:02:02.035Z,8.87
2022-09-09T02:04:38.967Z,9.45
2022-09-09T02:07:09.953Z,8.73
2022-09-09T02:09:38.138Z,9.45
2022-09-09T02:12:10.493Z,8.63
2022-09-09T02:14:41.102Z,8.20
2022-09-09T02:17:11.214Z,6.35
2022-09-09T02:19:39.322Z,7.07
2022-09-09T02:22:06.756Z,7.85
2022-09-09T02:24:36.175Z,5.97
2022-09-09T02:27:04.701Z,5.83
2022-09-09T02:29:33.413Z,8.48
2022-09-09T02:32:03.958Z,6.85
2022-09-09T02:34:33.548Z,4.97
2022-09-09T02:37:01.130Z,8.65
2022-09-09T02:39:28.456Z,5.97
2022-09-09T02:41:55.779Z,5.28
2022-09-09T02:44:23.126Z,6.10
2022-09-09T02:47:05.078Z,6.88
2022-09-09T02:49:37.399Z,6.30
2022-09-09T02:52:07.673Z,6.60
2022-09-09T02:54:37.171Z,7.32
2022-09-09T02:57:08.340Z,4.60
2022-09-09T02:59:36.094Z,5.78
2022-09-09T03:02:03.693Z,5.63
2022-09-09T03:04:32.054Z,4.77
2022-09-09T03:07:00.804Z,4.80
2022-09-09T03:09:28.189Z,7.18
2022-09-09T03:11:56.526Z,7.05
2022-09-09T03:14:25.957Z,6.07
2022-09-09T03:16:53.593Z,4.70
2022-09-09T03:19:21.428Z,4.90
2022-09-09T03:21:49.081Z,5.85
2022-09-09T03:24:17.749Z,6.82
2022-09-09T03:26:46.133Z,6.70
2022-09-09T03:29:14.183Z,4.97
2022-09-09T03:31:41.823Z,6.47
2022-09-09T03:34:09.207Z,6.32
2022-09-09T03:36:36.605Z,7.78
2022-09-09T03:39:04.788Z,6.03
2022-09-09T03:41:33.475Z,7.67
2022-09-09T03:44:00.798Z,8.73
2022-09-09T03:46:28.470Z,5.97
2022-09-09T03:48:55.838Z,6.07
2022-09-09T03:51:23.372Z,6.85
2022-09-09T03:53:51.271Z,5.80
2022-09-09T03:56:18.617Z,5.97
2022-09-09T03:58:47.301Z,5.90
2022-09-09T04:01:15.275Z,7.47
2022-09-09T04:03:42.961Z,8.27
2022-09-09T04:06:12.710Z,6.50
2022-09-09T04:08:40.273Z,6.15
2022-09-09T04:11:08.410Z,6.32
2022-09-09T04:13:36.058Z,9.90
2022-09-09T04:16:05.666Z,7.53
2022-09-09T04:18:33.423Z,6.17
2022-09-09T04:21:01.063Z,7.13
2022-09-09T04:23:29.724Z,5.90
2022-09-09T04:25:57.682Z,6.93
2022-09-09T04:28:25.650Z,7.82
2022-09-09T04:30:53.430Z,6.80
2022-09-09T04:33:22.497Z,5.90
2022-09-09T04:35:50.649Z,5.57
2022-09-09T04:38:19.150Z,7.65
2022-09-09T04:40:48.362Z,5.28
2022-09-09T04:43:16.266Z,6.87
2022-09-09T04:45:44.105Z,4.95
2022-09-09T04:48:11.570Z,7.10
2022-09-09T04:50:41.499Z,6.03
2022-09-09T04:53:08.876Z,7.43
2022-09-09T04:55:36.522Z,7.47
2022-09-09T04:58:05.040Z,7.47
2022-09-09T05:00:32.498Z,6.32
2022-09-09T05:02:59.869Z,8.07
2022-09-09T05:05:27.496Z,7.40
2022-09-09T05:07:56.553Z,5.20
2022-09-09T05:10:24.238Z,11.20
2022-09-09T05:12:54.716Z,8.18
2022-09-09T05:15:22.605Z,9.25
2022-09-09T05:17:49.902Z,7.93
2022-09-09T05:20:17.681Z,10.20
2022-09-09T05:22:45.093Z,7.22
2022-09-09T05:25:13.781Z,6.88
2022-09-09T05:27:41.151Z,6.97
2022-09-09T05:30:09.168Z,6.47
2022-09-09T05:32:37.037Z,7.60
2022-09-09T05:35:05.023Z,6.70
2022-09-09T05:37:32.743Z,7.93
2022-09-09T05:40:00.176Z,7.07
2022-09-09T05:42:31.550Z,8.88
2022-09-09T05:44:59.086Z,7.57
2022-09-09T05:47:28.539Z,8.23
2022-09-09T05:49:56.516Z,12.25
2022-09-09T05:52:24.641Z,6.72
2022-09-09T05:54:51.952Z,8.02
2022-09-09T05:57:20.408Z,6.83
2022-09-09T05:59:49.086Z,7.45
2022-09-09T06:02:16.549Z,6.82
2022-09-09T06:04:44.117Z,8.93
2022-09-09T06:07:11.551Z,6.93
2022-09-09T06:09:38.912Z,5.07
2022-09-09T06:12:06.613Z,7.93
2022-09-09T06:14:33.955Z,7.90
2022-09-09T06:17:03.262Z,7.30
2022-09-09T06:19:31.685Z,9.82
2022-09-09T06:21:59.515Z,5.77
2022-09-09T06:24:26.858Z,9.80
2022-09-09T06:26:54.974Z,8.70
2022-09-09T06:29:22.506Z,7.82
2022-09-09T06:31:49.983Z,9.73
2022-09-09T06:34:18.755Z,7.03
2022-09-09T06:36:46.802Z,7.05
2022-09-09T06:39:16.341Z,6.18
2022-09-09T06:41:44.452Z,8.65
2022-09-09T06:44:12.644Z,8.98
2022-09-09T06:46:40.596Z,9.60
2022-09-09T06:49:08.312Z,8.27
2022-09-09T06:51:38.813Z,7.22
2022-09-09T06:54:07.160Z,8.68
2022-09-09T06:56:35.751Z,10.18
2022-09-09T06:59:04.963Z,10.87
2022-09-09T07:01:33.412Z,8.77
2022-09-09T07:04:04.602Z,10.65
2022-09-09T07:06:33.274Z,9.70
2022-09-09T07:09:02.601Z,7.75
2022-09-09T07:11:31.857Z,7.45
2022-09-09T07:13:59.960Z,8.10
2022-09-09T07:16:28.489Z,9.85
2022-09-09T07:18:58.536Z,10.15
2022-09-09T07:21:27.199Z,7.63
2022-09-09T07:23:55.517Z,7.63
2022-09-09T07:26:25.040Z,8.50
2022-09-09T07:28:52.583Z,9.13
2022-09-09T07:31:21.403Z,8.70
2022-09-09T07:33:49.458Z,10.00
2022-09-09T07:36:18.475Z,9.52
2022-09-09T07:38:46.694Z,9.70
2022-09-09T07:41:15.225Z,10.30
2022-09-09T07:43:45.850Z,8.90
2022-09-09T07:46:14.394Z,9.77
2022-09-09T07:48:45.339Z,8.43
2022-09-09T07:51:14.544Z,8.50
2022-09-09T07:53:41.901Z,12.15
2022-09-09T07:56:11.122Z,8.75
2022-09-09T07:58:38.711Z,8.25
2022-09-09T08:01:12.327Z,9.13
2022-09-09T08:03:40.229Z,9.93
2022-09-09T08:06:08.939Z,8.10
2022-09-09T08:08:37.356Z,10.32
2022-09-09T08:11:05.531Z,8.77
2022-09-09T08:13:33.373Z,9.80
2022-09-09T08:16:12.430Z,8.93
2022-09-09T08:18:40.134Z,8.45
2022-09-09T08:21:09.296Z,8.55
2022-09-09T08:23:37.040Z,9.98
2022-09-09T08:26:08.231Z,8.88
2022-09-09T08:28:35.560Z,8.57
2022-09-09T08:31:14.341Z,11.07
2022-09-09T08:33:42.206Z,6.75
2022-09-09T08:36:11.851Z,9.93
2022-09-09T08:38:39.395Z,9.65
2022-09-09T08:41:16.603Z,7.97
2022-09-09T08:43:45.279Z,10.20
2022-09-09T08:46:19.045Z,10.25
2022-09-09T08:48:53.327Z,6.95
2022-09-09T08:51:21.019Z,8.95
2022-09-09T08:53:49.959Z,10.03
2022-09-09T08:56:19.189Z,8.70
2022-09-09T08:58:47.927Z,7.25
2022-09-09T09:01:21.432Z,7.88
2022-09-09T09:03:53.881Z,7.57
2022-09-09T09:06:28.052Z,8.13
2022-09-09T09:09:01.958Z,7.38
2022-09-09T09:11:29.285Z,7.70
2022-09-09T09:13:58.568Z,7.00
2022-09-09T09:16:33.263Z,6.70
2022-09-09T09:19:00.843Z,7.40
2022-09-09T09:21:31.691Z,8.35
2022-09-09T09:24:00.156Z,6.68
2022-09-09T09:26:28.892Z,6.03
2022-09-09T09:28:58.146Z,9.57
2022-09-09T09:31:27.899Z,6.17
2022-09-09T09:33:55.893Z,7.82
2022-09-09T09:36:26.132Z,6.80
2022-09-09T09:41:43.722Z,7.53
2022-09-09T09:44:23.890Z,7.37
2022-09-09T09:46:52.591Z,7.68
2022-09-09T09:49:20.023Z,7.07
2022-09-09T09:51:47.720Z,8.13
2022-09-09T09:54:22.473Z,6.20
2022-09-09T09:56:49.913Z,8.07
2022-09-09T09:59:38.807Z,10.25
2022-09-09T10:02:19.112Z,8.27
2022-09-09T10:04:47.273Z,8.80
2022-09-09T10:07:15.165Z,8.30
2022-09-09T10:09:42.582Z,7.57
2022-09-09T10:12:15.600Z,8.05
2022-09-09T10:14:46.371Z,7.90
2022-09-09T10:17:20.534Z,8.20
2022-09-09T10:19:56.105Z,8.15
2022-09-09T10:22:27.860Z,7.37
2022-09-09T10:25:13.331Z,7.85
2022-09-09T10:27:47.935Z,9.15
2022-09-09T10:30:18.651Z,8.68
2022-09-09T10:32:51.902Z,7.95
2022-09-09T10:35:27.817Z,9.30
2022-09-09T10:38:11.845Z,6.90
2022-09-09T10:40:43.145Z,10.45
2022-09-09T10:43:15.567Z,6.78
2022-09-09T10:45:49.363Z,8.27
2022-09-09T10:48:22.980Z,7.50
2022-09-09T10:51:11.462Z,7.40
2022-09-09T10:53:42.379Z,7.03
2022-09-09T10:56:11.392Z,8.38
2022-09-09T10:58:43.584Z,8.98
2022-09-09T11:01:17.050Z,8.00
2022-09-09T11:03:45.400Z,8.70
2022-09-09T11:06:15.623Z,7.90
2022-09-09T11:08:43.773Z,8.77
2022-09-09T11:11:13.434Z,8.13
2022-09-09T11:13:44.171Z,6.57
2022-09-09T11:16:17.996Z,8.93
2022-09-09T11:18:47.376Z,9.23
2022-09-09T11:21:18.377Z,7.00
2022-09-09T11:23:48.085Z,8.43
2022-09-09T11:26:18.624Z,6.73
2022-09-09T11:28:56.375Z,8.20
2022-09-09T11:31:35.887Z,8.60
2022-09-09T11:34:12.348Z,8.73
2022-09-09T11:36:54.600Z,8.95
2022-09-09T11:39:32.927Z,10.17
2022-09-09T11:42:07.887Z,10.77
2022-09-09T11:44:35.411Z,9.68
2022-09-09T11:47:02.787Z,10.25
2022-09-09T11:49:32.322Z,8.43
2022-09-09T11:51:59.669Z,8.80
2022-09-09T11:54:40.269Z,9.75
2022-09-09T11:57:18.681Z,6.93
2022-09-09T11:59:53.026Z,7.35
2022-09-09T12:02:24.227Z,7.07
2022-09-09T12:04:57.026Z,7.37
2022-09-09T12:07:27.676Z,5.97
2022-09-09T12:09:58.856Z,7.68
2022-09-09T12:12:28.213Z,6.60
2022-09-09T12:15:00.323Z,7.38
2022-09-09T12:17:29.302Z,6.33
2022-09-09T12:20:06.695Z,6.53
2022-09-09T12:22:37.198Z,6.10
2022-09-09T12:25:12.626Z,6.28
2022-09-09T12:27:44.587Z,6.13
2022-09-09T12:30:14.427Z,6.20
2022-09-09T12:32:41.914Z,5.88
2022-09-09T12:35:12.963Z,7.80
2022-09-09T12:37:41.833Z,6.95
2022-09-09T12:40:21.075Z,6.63
2022-09-09T12:42:48.653Z,6.40
2022-09-09T12:45:20.105Z,7.30
2022-09-09T12:47:49.168Z,6.13
2022-09-09T12:50:20.576Z,6.82
2022-09-09T12:52:48.310Z,5.55
2022-09-09T12:55:20.376Z,6.50
2022-09-09T12:57:47.781Z,5.18
2022-09-09T13:00:17.535Z,6.70
2022-09-09T13:02:52.469Z,4.18
2022-09-09T13:05:21.252Z,7.53
2022-09-09T13:07:49.052Z,5.13
2022-09-09T13:10:25.528Z,6.15
2022-09-09T13:13:06.031Z,5.68
2022-09-09T13:15:33.452Z,5.78
2022-09-09T13:18:03.326Z,5.28
2022-09-09T13:20:31.890Z,5.73
2022-09-09T13:22:59.256Z,6.60
2022-09-09T13:25:27.542Z,5.53
2022-09-09T13:27:56.550Z,5.63
2022-09-09T13:30:26.466Z,5.35
2022-09-09T13:33:02.919Z,5.20
2022-09-09T13:35:30.547Z,4.63
2022-09-09T13:37:57.997Z,3.53
2022-09-09T13:40:25.565Z,3.70
2022-09-09T13:42:54.312Z,3.22
2022-09-09T13:45:22.626Z,2.73
2022-09-09T13:47:53.556Z,3.15
2022-09-09T13:50:21.888Z,3.30
2022-09-09T13:52:50.101Z,3.72
2022-09-09T13:55:17.492Z,3.72
2022-09-09T13:57:52.307Z,3.67
2022-09-09T14:00:19.685Z,4.57
2022-09-09T14:02:47.030Z,4.57
2022-09-09T14:05:15.971Z,4.78
2022-09-09T14:07:43.526Z,4.75
2022-09-09T14:10:11.410Z,4.27
2022-09-09T14:12:39.160Z,4.97
2022-09-09T14:15:07.298Z,4.85
2022-09-09T14:17:37.048Z,6.70
2022-09-09T14:20:04.771Z,6.70
2022-09-09T14:22:33.534Z,6.73
2022-09-09T14:25:00.872Z,6.20
2022-09-09T14:27:28.395Z,5.57
2022-09-09T14:29:56.051Z,5.53
2022-09-09T14:32:23.414Z,5.65
2022-09-09T14:34:50.877Z,5.37
2022-09-09T14:37:18.316Z,3.75
2022-09-09T14:39:48.003Z,5.65
2022-09-09T14:42:15.442Z,5.25
2022-09-09T14:44:42.778Z,4.60
2022-09-09T14:47:10.396Z,4.93
2022-09-09T14:49:38.034Z,7.57
2022-09-09T14:52:05.619Z,8.95
2022-09-09T14:54:32.966Z,6.60
2022-09-09T14:57:01.777Z,7.38
2022-09-09T14:59:29.447Z,6.53
2022-09-09T15:01:57.498Z,5.20
2022-09-09T15:04:25.314Z,5.70
2022-09-09T15:06:54.219Z,7.82
2022-09-09T15:09:21.711Z,4.53
2022-09-09T15:11:49.113Z,5.23
2022-09-09T15:14:22.281Z,5.65
2022-09-09T15:16:52.597Z,5.03
2022-09-09T15:19:20.087Z,6.05
2022-09-09T15:21:48.435Z,6.18
2022-09-09T15:24:17.003Z,6.87
2022-09-09T15:26:44.308Z,6.63
2022-09-09T15:29:11.630Z,7.97
2022-09-09T15:31:40.327Z,7.55
2022-09-09T15:34:08.494Z,7.78
2022-09-09T15:36:36.395Z,8.50
2022-09-09T15:39:04.912Z,6.15
2022-09-09T15:41:33.600Z,6.53
2022-09-09T15:44:01.669Z,4.28
2022-09-09T15:46:30.666Z,5.85
2022-09-09T15:49:00.351Z,6.13
2022-09-09T15:51:42.183Z,5.03
2022-09-09T15:54:11.146Z,5.97
2022-09-09T15:56:38.488Z,6.60
2022-09-09T15:59:06.011Z,6.32
2022-09-09T16:01:33.497Z,7.33
2022-09-09T16:04:02.409Z,6.60
2022-09-09T16:06:30.780Z,8.02
2022-09-09T16:08:58.572Z,10.65
2022-09-09T16:11:26.785Z,8.95
2022-09-09T16:13:54.973Z,10.03
2022-09-09T16:16:23.801Z,8.10
2022-09-09T16:18:52.731Z,13.20
2022-09-09T16:21:22.754Z,10.40
2022-09-09T16:23:51.265Z,9.98
2022-09-09T16:26:19.405Z,10.87
2022-09-09T16:28:48.227Z,12.27
2022-09-09T16:31:17.442Z,11.32
2022-09-09T16:33:45.108Z,10.52
2022-09-09T16:36:13.402Z,12.02
2022-09-09T16:38:42.327Z,13.70
2022-09-09T16:41:11.364Z,11.32
2022-09-09T16:43:38.962Z,11.50
2022-09-09T16:46:13.041Z,10.77
2022-09-09T16:48:40.402Z,9.65
2022-09-09T16:51:09.050Z,10.57
2022-09-09T16:53:36.626Z,9.50
2022-09-09T16:56:09.231Z,7.65
2022-09-09T16:58:37.586Z,6.60
2022-09-09T17:01:05.330Z,7.80
2022-09-09T17:03:33.471Z,6.07
2022-09-09T17:06:02.868Z,5.10
2022-09-09T17:08:31.104Z,7.25
2022-09-09T17:10:58.537Z,7.25
2022-09-09T17:13:27.311Z,6.82
2022-09-09T17:15:55.549Z,6.63
2022-09-09T17:18:25.920Z,6.70
2022-09-09T17:20:53.269Z,8.02
2022-09-09T17:23:20.601Z,6.88
2022-09-09T17:25:57.575Z,7.05
2022-09-09T17:28:28.217Z,6.23
2022-09-09T17:30:57.412Z,7.40
2022-09-09T17:33:24.751Z,8.60
2022-09-09T17:35:52.097Z,7.05
2022-09-09T17:38:19.575Z,7.07
2022-09-09T17:40:46.922Z,7.63
2022-09-09T17:43:14.231Z,10.43
2022-09-09T17:45:41.549Z,8.98
2022-09-09T17:48:10.860Z,9.68
2022-09-09T17:50:39.249Z,11.75
2022-09-09T17:53:06.605Z,8.13
2022-09-09T17:55:34.572Z,8.93
2022-09-09T17:58:01.898Z,9.23
2022-09-09T18:00:31.098Z,7.95
2022-09-09T18:02:58.471Z,10.05
2022-09-09T18:05:27.203Z,9.67
2022-09-09T18:07:54.519Z,9.88
2022-09-09T18:10:21.901Z,8.63
2022-09-09T18:12:49.229Z,9.90
2022-09-09T18:15:28.307Z,8.05
2022-09-09T18:18:06.883Z,8.83
2022-09-09T18:20:35.598Z,7.47
2022-09-09T18:23:02.951Z,6.32
2022-09-09T18:25:30.263Z,8.20
2022-09-09T18:27:58.416Z,8.38
2022-09-09T18:30:25.954Z,5.97
2022-09-09T18:32:53.572Z,7.07
2022-09-09T18:35:20.913Z,9.30
2022-09-09T18:37:49.597Z,9.15
2022-09-09T18:40:18.166Z,10.40
2022-09-09T18:42:47.331Z,9.23
2022-09-09T18:45:14.880Z,7.07
2022-09-09T18:47:42.787Z,9.93
2022-09-09T18:50:11.408Z,9.70
2022-09-09T18:52:38.736Z,11.90
2022-09-09T18:55:08.347Z,14.20
2022-09-09T18:57:36.629Z,10.37
2022-09-09T19:00:04.779Z,9.82
2022-09-09T19:02:33.026Z,11.73
2022-09-09T19:05:00.366Z,8.93
2022-09-09T19:07:27.688Z,10.35
2022-09-09T19:09:55.020Z,12.43
2022-09-09T19:12:23.995Z,10.38
2022-09-09T19:14:51.715Z,12.05
2022-09-09T19:17:19.036Z,13.27
2022-09-09T19:19:46.391Z,10.73
2022-09-09T19:22:14.142Z,11.83
2022-09-09T19:24:41.588Z,10.52
2022-09-09T19:27:09.065Z,11.35
2022-09-09T19:29:39.388Z,10.88
2022-09-09T19:32:42.750Z,9.48
2022-09-09T19:34:54.195Z,9.37
2022-09-09T19:37:22.365Z,10.68
2022-09-09T19:39:50.536Z,6.82
2022-09-09T19:42:17.980Z,10.00
2022-09-09T19:44:47.020Z,8.18
2022-09-09T19:47:14.907Z,10.80
2022-09-09T19:49:46.767Z,10.73
2022-09-09T19:52:14.505Z,8.73
2022-09-09T19:54:41.838Z,9.55
2022-09-09T19:57:10.019Z,11.35
2022-09-09T19:59:37.435Z,9.63
2022-09-09T20:02:06.337Z,13.02
2022-09-09T20:04:35.134Z,10.80
2022-09-09T20:07:02.437Z,11.25
2022-09-09T20:09:30.490Z,10.48
2022-09-09T20:11:57.828Z,11.17
2022-09-09T20:14:25.167Z,12.15
2022-09-09T20:16:52.550Z,9.38
2022-09-09T20:19:21.289Z,9.18
2022-09-09T20:21:49.311Z,8.15
2022-09-09T20:24:17.454Z,7.13
2022-09-09T20:26:46.279Z,9.63
2022-09-09T20:29:16.346Z,7.88
2022-09-09T20:31:45.004Z,7.47
2022-09-09T20:34:13.323Z,8.13
2022-09-09T20:36:42.201Z,7.63
2022-09-09T20:39:10.462Z,8.05
2022-09-09T20:41:38.963Z,8.88
2022-09-09T20:44:08.296Z,10.65
2022-09-09T20:46:36.724Z,10.70
2022-09-09T20:49:05.124Z,9.57
2022-09-09T20:51:33.568Z,8.60
2022-09-09T20:54:03.779Z,10.60
2022-09-09T20:56:32.467Z,9.32
2022-09-09T20:58:59.940Z,10.82
2022-09-09T21:01:27.698Z,8.50
2022-09-09T21:03:55.547Z,9.63
2022-09-09T21:06:23.067Z,9.98
2022-09-09T21:08:50.897Z,8.82
2022-09-09T21:11:19.677Z,9.52
2022-09-09T21:13:47.023Z,11.80
2022-09-09T21:16:15.192Z,9.27
2022-09-09T21:18:44.288Z,8.13
2022-09-09T21:21:11.820Z,9.38
2022-09-09T21:23:39.240Z,9.98
2022-09-09T21:26:07.544Z,10.77
2022-09-09T21:28:36.452Z,12.65
2022-09-09T21:31:04.370Z,11.38
2022-09-09T21:33:32.664Z,10.65
2022-09-09T21:36:03.326Z,9.27
2022-09-09T21:38:31.050Z,10.83
2022-09-09T21:40:58.481Z,9.38
2022-09-09T21:43:25.919Z,9.55
2022-09-09T21:45:54.618Z,11.43
2022-09-09T21:48:23.682Z,9.82
2022-09-09T21:50:51.004Z,11.77
2022-09-09T21:53:20.171Z,9.70
2022-09-09T21:55:48.503Z,9.38
2022-09-09T21:58:16.201Z,10.85
2022-09-09T22:00:45.693Z,11.88
2022-09-09T22:03:15.118Z,9.37
2022-09-09T22:05:42.889Z,10.60
2022-09-09T22:08:10.831Z,11.70
2022-09-09T22:10:38.557Z,13.55
2022-09-09T22:13:05.888Z,12.88
2022-09-09T22:15:33.248Z,13.73
2022-09-09T22:18:02.958Z,12.60
2022-09-09T22:20:33.746Z,15.32
2022-09-09T22:23:01.067Z,12.45
2022-09-09T22:25:28.425Z,15.60
2022-09-09T22:27:56.154Z,10.60
2022-09-09T22:30:23.502Z,13.88
2022-09-09T22:32:51.375Z,12.30
2022-09-09T22:35:18.714Z,12.10
2022-09-09T22:37:47.405Z,11.57
2022-09-09T22:40:15.036Z,10.27
2022-09-09T22:42:42.459Z,9.85
2022-09-09T22:45:10.276Z,8.20
2022-09-09T22:47:39.124Z,11.77
2022-09-09T22:50:07.032Z,11.45
2022-09-09T22:52:34.350Z,9.00
2022-09-09T22:55:03.045Z,8.65
2022-09-09T22:57:31.002Z,9.00
2022-09-09T22:59:59.000Z,8.43
2022-09-09T23:02:27.111Z,8.70
2022-09-09T23:04:54.459Z,7.83
2022-09-09T23:07:23.330Z,8.88
2022-09-09T23:09:50.638Z,9.50
2022-09-09T23:12:20.060Z,8.88
2022-09-09T23:14:47.907Z,8.10
2022-09-09T23:17:18.394Z,8.80
2022-09-09T23:19:47.481Z,8.45
2022-09-09T23:22:15.144Z,10.20
2022-09-09T23:24:42.656Z,7.22
2022-09-09T23:27:10.481Z,9.52
2022-09-09T23:29:39.168Z,7.60
2022-09-09T23:32:06.702Z,8.70
2022-09-09T23:34:35.188Z,9.43
2022-09-09T23:37:02.659Z,7.15
2022-09-09T23:39:30.120Z,5.05
2022-09-09T23:41:57.455Z,6.87
2022-09-09T23:44:24.807Z,6.82
2022-09-09T23:46:53.490Z,5.60
2022-09-09T23:49:20.887Z,5.00
2022-09-09T23:51:49.545Z,5.55
2022-09-09T23:54:17.463Z,6.13
2022-09-09T23:56:45.725Z,5.40
2022-09-09T23:59:13.097Z,5.78
